sensor_id;sensor_type;location;lat;lon;timestamp;P1;durP1;ratioP1;P2;durP2;ratioP2
80425;SDS011;69766;51.476;5.704;2023-10-19T00:00:52;32.03;;;18.73;;
80425;SDS011;69766;51.476;5.704;2023-10-19T00:03:20;31.35;;;18.02;;
80425;SDS011;69766;51.476;5.704;2023-10-19T00:05:48;36.67;;;19.60;;
80425;SDS011;69766;51.476;5.704;2023-10-19T00:08:14;35.67;;;18.70;;
80425;SDS011;69766;51.476;5.704;2023-10-19T00:10:46;38.58;;;21.27;;
80425;SDS011;69766;51.476;5.704;2023-10-19T00:13:15;44.65;;;20.27;;
80425;SDS011;69766;51.476;5.704;2023-10-19T00:15:44;35.88;;;20.52;;
80425;SDS011;69766;51.476;5.704;2023-10-19T00:18:19;46.85;;;20.98;;
80425;SDS011;69766;51.476;5.704;2023-10-19T00:20:47;43.30;;;20.30;;
80425;SDS011;69766;51.476;5.704;2023-10-19T00:23:23;39.75;;;20.27;;
80425;SDS011;69766;51.476;5.704;2023-10-19T00:25:59;41.25;;;19.92;;
80425;SDS011;69766;51.476;5.704;2023-10-19T00:28:32;47.15;;;22.55;;
80425;SDS011;69766;51.476;5.704;2023-10-19T00:31:00;38.20;;;20.42;;
80425;SDS011;69766;51.476;5.704;2023-10-19T00:33:33;34.97;;;19.60;;
80425;SDS011;69766;51.476;5.704;2023-10-19T00:36:03;37.22;;;18.38;;
80425;SDS011;69766;51.476;5.704;2023-10-19T00:38:33;34.33;;;18.52;;
80425;SDS011;69766;51.476;5.704;2023-10-19T00:41:07;36.70;;;18.67;;
80425;SDS011;69766;51.476;5.704;2023-10-19T00:43:40;41.78;;;20.85;;
80425;SDS011;69766;51.476;5.704;2023-10-19T00:46:10;52.53;;;19.88;;
80425;SDS011;69766;51.476;5.704;2023-10-19T00:48:52;33.95;;;17.67;;
80425;SDS011;69766;51.476;5.704;2023-10-19T00:51:21;37.25;;;18.95;;
80425;SDS011;69766;51.476;5.704;2023-10-19T00:57:01;34.60;;;19.20;;
80425;SDS011;69766;51.476;5.704;2023-10-19T00:59:36;36.05;;;17.98;;
80425;SDS011;69766;51.476;5.704;2023-10-19T01:02:12;32.30;;;18.35;;
80425;SDS011;69766;51.476;5.704;2023-10-19T01:04:46;43.75;;;19.60;;
80425;SDS011;69766;51.476;5.704;2023-10-19T01:07:19;51.42;;;18.08;;
80425;SDS011;69766;51.476;5.704;2023-10-19T01:09:48;34.30;;;17.23;;
80425;SDS011;69766;51.476;5.704;2023-10-19T01:12:18;28.98;;;17.30;;
80425;SDS011;69766;51.476;5.704;2023-10-19T01:15:10;32.10;;;17.85;;
80425;SDS011;69766;51.476;5.704;2023-10-19T01:20:13;32.20;;;17.00;;
80425;SDS011;69766;51.476;5.704;2023-10-19T01:22:48;30.80;;;17.58;;
80425;SDS011;69766;51.476;5.704;2023-10-19T01:28:23;30.30;;;17.73;;
80425;SDS011;69766;51.476;5.704;2023-10-19T01:31:05;51.20;;;18.90;;
80425;SDS011;69766;51.476;5.704;2023-10-19T01:33:32;31.10;;;17.52;;
80425;SDS011;69766;51.476;5.704;2023-10-19T01:35:59;33.65;;;17.52;;
80425;SDS011;69766;51.476;5.704;2023-10-19T01:38:50;31.73;;;16.50;;
80425;SDS011;69766;51.476;5.704;2023-10-19T01:41:22;43.17;;;17.42;;
80425;SDS011;69766;51.476;5.704;2023-10-19T01:43:50;36.13;;;17.10;;
80425;SDS011;69766;51.476;5.704;2023-10-19T01:46:20;26.33;;;15.68;;
80425;SDS011;69766;51.476;5.704;2023-10-19T01:48:50;29.43;;;16.70;;
80425;SDS011;69766;51.476;5.704;2023-10-19T01:51:21;27.65;;;16.02;;
80425;SDS011;69766;51.476;5.704;2023-10-19T01:53:48;28.58;;;15.65;;
80425;SDS011;69766;51.476;5.704;2023-10-19T01:56:15;29.95;;;16.33;;
80425;SDS011;69766;51.476;5.704;2023-10-19T01:58:43;31.73;;;15.07;;
80425;SDS011;69766;51.476;5.704;2023-10-19T02:01:12;26.10;;;14.70;;
80425;SDS011;69766;51.476;5.704;2023-10-19T02:03:39;24.38;;;14.35;;
80425;SDS011;69766;51.476;5.704;2023-10-19T02:06:11;29.23;;;14.75;;
80425;SDS011;69766;51.476;5.704;2023-10-19T02:08:52;25.15;;;14.55;;
80425;SDS011;69766;51.476;5.704;2023-10-19T02:11:26;27.58;;;15.25;;
80425;SDS011;69766;51.476;5.704;2023-10-19T02:13:54;28.90;;;15.07;;
80425;SDS011;69766;51.476;5.704;2023-10-19T02:16:24;27.23;;;14.77;;
80425;SDS011;69766;51.476;5.704;2023-10-19T02:18:51;24.55;;;15.00;;
80425;SDS011;69766;51.476;5.704;2023-10-19T02:21:18;24.73;;;15.10;;
80425;SDS011;69766;51.476;5.704;2023-10-19T02:23:47;25.73;;;14.82;;
80425;SDS011;69766;51.476;5.704;2023-10-19T02:26:16;27.92;;;15.00;;
80425;SDS011;69766;51.476;5.704;2023-10-19T02:28:44;24.05;;;14.30;;
80425;SDS011;69766;51.476;5.704;2023-10-19T02:31:11;28.05;;;14.52;;
80425;SDS011;69766;51.476;5.704;2023-10-19T02:33:49;26.92;;;14.23;;
80425;SDS011;69766;51.476;5.704;2023-10-19T02:36:28;22.20;;;13.50;;
80425;SDS011;69766;51.476;5.704;2023-10-19T02:38:57;25.35;;;13.25;;
80425;SDS011;69766;51.476;5.704;2023-10-19T02:41:25;23.88;;;13.65;;
80425;SDS011;69766;51.476;5.704;2023-10-19T02:43:52;24.73;;;13.60;;
80425;SDS011;69766;51.476;5.704;2023-10-19T02:46:33;23.40;;;14.13;;
80425;SDS011;69766;51.476;5.704;2023-10-19T02:49:02;30.60;;;13.27;;
80425;SDS011;69766;51.476;5.704;2023-10-19T02:51:30;19.75;;;12.43;;
80425;SDS011;69766;51.476;5.704;2023-10-19T02:53:56;23.20;;;12.48;;
80425;SDS011;69766;51.476;5.704;2023-10-19T02:56:25;19.25;;;11.50;;
80425;SDS011;69766;51.476;5.704;2023-10-19T02:58:52;27.25;;;12.60;;
80425;SDS011;69766;51.476;5.704;2023-10-19T03:01:21;21.20;;;12.57;;
80425;SDS011;69766;51.476;5.704;2023-10-19T03:03:47;24.30;;;12.93;;
80425;SDS011;69766;51.476;5.704;2023-10-19T03:06:17;19.10;;;11.65;;
80425;SDS011;69766;51.476;5.704;2023-10-19T03:08:45;25.02;;;13.80;;
80425;SDS011;69766;51.476;5.704;2023-10-19T03:11:11;22.02;;;13.05;;
80425;SDS011;69766;51.476;5.704;2023-10-19T03:13:38;20.65;;;12.57;;
80425;SDS011;69766;51.476;5.704;2023-10-19T03:16:06;20.98;;;11.70;;
80425;SDS011;69766;51.476;5.704;2023-10-19T03:18:34;22.70;;;12.63;;
80425;SDS011;69766;51.476;5.704;2023-10-19T03:21:01;22.23;;;12.18;;
80425;SDS011;69766;51.476;5.704;2023-10-19T03:23:27;30.65;;;13.27;;
80425;SDS011;69766;51.476;5.704;2023-10-19T03:25:56;31.63;;;12.30;;
80425;SDS011;69766;51.476;5.704;2023-10-19T03:28:40;46.95;;;12.23;;
80425;SDS011;69766;51.476;5.704;2023-10-19T03:31:06;18.83;;;11.63;;
80425;SDS011;69766;51.476;5.704;2023-10-19T03:33:33;32.58;;;13.43;;
80425;SDS011;69766;51.476;5.704;2023-10-19T03:36:01;26.52;;;12.30;;
80425;SDS011;69766;51.476;5.704;2023-10-19T03:38:29;22.50;;;10.98;;
80425;SDS011;69766;51.476;5.704;2023-10-19T03:41:01;21.88;;;11.20;;
80425;SDS011;69766;51.476;5.704;2023-10-19T03:43:32;19.75;;;10.85;;
80425;SDS011;69766;51.476;5.704;2023-10-19T03:45:58;17.77;;;10.52;;
80425;SDS011;69766;51.476;5.704;2023-10-19T03:48:29;18.27;;;9.40;;
80425;SDS011;69766;51.476;5.704;2023-10-19T03:51:01;16.27;;;8.80;;
80425;SDS011;69766;51.476;5.704;2023-10-19T03:53:28;15.48;;;9.48;;
80425;SDS011;69766;51.476;5.704;2023-10-19T03:55:54;14.55;;;8.60;;
80425;SDS011;69766;51.476;5.704;2023-10-19T03:58:20;12.40;;;7.40;;
80425;SDS011;69766;51.476;5.704;2023-10-19T04:00:47;15.98;;;7.20;;
80425;SDS011;69766;51.476;5.704;2023-10-19T04:03:14;12.38;;;6.70;;
80425;SDS011;69766;51.476;5.704;2023-10-19T04:05:43;12.00;;;7.68;;
80425;SDS011;69766;51.476;5.704;2023-10-19T04:08:14;14.95;;;7.20;;
80425;SDS011;69766;51.476;5.704;2023-10-19T04:10:41;10.73;;;6.28;;
80425;SDS011;69766;51.476;5.704;2023-10-19T04:13:12;14.45;;;7.03;;
80425;SDS011;69766;51.476;5.704;2023-10-19T04:15:38;15.23;;;7.05;;
80425;SDS011;69766;51.476;5.704;2023-10-19T04:18:04;15.48;;;6.80;;
80425;SDS011;69766;51.476;5.704;2023-10-19T04:20:36;11.13;;;5.80;;
80425;SDS011;69766;51.476;5.704;2023-10-19T04:23:08;10.82;;;6.13;;
80425;SDS011;69766;51.476;5.704;2023-10-19T04:25:39;13.38;;;5.88;;
80425;SDS011;69766;51.476;5.704;2023-10-19T04:28:05;12.50;;;5.90;;
80425;SDS011;69766;51.476;5.704;2023-10-19T04:30:31;11.90;;;5.38;;
80425;SDS011;69766;51.476;5.704;2023-10-19T04:32:58;10.90;;;4.82;;
80425;SDS011;69766;51.476;5.704;2023-10-19T04:35:26;11.15;;;4.57;;
80425;SDS011;69766;51.476;5.704;2023-10-19T04:37:55;8.38;;;4.32;;
80425;SDS011;69766;51.476;5.704;2023-10-19T04:40:22;15.73;;;4.65;;
80425;SDS011;69766;51.476;5.704;2023-10-19T04:42:48;8.48;;;4.03;;
80425;SDS011;69766;51.476;5.704;2023-10-19T04:45:18;11.43;;;3.63;;
80425;SDS011;69766;51.476;5.704;2023-10-19T04:47:44;7.47;;;3.50;;
80425;SDS011;69766;51.476;5.704;2023-10-19T04:50:10;11.73;;;3.80;;
80425;SDS011;69766;51.476;5.704;2023-10-19T04:52:36;10.38;;;3.78;;
80425;SDS011;69766;51.476;5.704;2023-10-19T04:55:02;13.15;;;3.67;;
80425;SDS011;69766;51.476;5.704;2023-10-19T04:57:28;7.10;;;3.65;;
80425;SDS011;69766;51.476;5.704;2023-10-19T04:59:54;10.75;;;3.70;;
80425;SDS011;69766;51.476;5.704;2023-10-19T05:02:20;11.90;;;3.35;;
80425;SDS011;69766;51.476;5.704;2023-10-19T05:04:46;13.50;;;3.85;;
80425;SDS011;69766;51.476;5.704;2023-10-19T05:07:11;12.27;;;3.90;;
80425;SDS011;69766;51.476;5.704;2023-10-19T05:09:39;10.20;;;3.58;;
80425;SDS011;69766;51.476;5.704;2023-10-19T05:12:06;9.93;;;3.30;;
80425;SDS011;69766;51.476;5.704;2023-10-19T05:14:34;13.38;;;5.25;;
80425;SDS011;69766;51.476;5.704;2023-10-19T05:17:04;8.85;;;3.00;;
80425;SDS011;69766;51.476;5.704;2023-10-19T05:19:31;12.67;;;3.27;;
80425;SDS011;69766;51.476;5.704;2023-10-19T05:21:57;7.47;;;3.38;;
80425;SDS011;69766;51.476;5.704;2023-10-19T05:24:24;9.10;;;3.35;;
80425;SDS011;69766;51.476;5.704;2023-10-19T05:26:51;6.28;;;3.30;;
80425;SDS011;69766;51.476;5.704;2023-10-19T05:29:18;12.88;;;3.30;;
80425;SDS011;69766;51.476;5.704;2023-10-19T05:31:45;12.93;;;3.90;;
80425;SDS011;69766;51.476;5.704;2023-10-19T05:34:10;13.07;;;3.95;;
80425;SDS011;69766;51.476;5.704;2023-10-19T05:36:36;11.15;;;3.95;;
80425;SDS011;69766;51.476;5.704;2023-10-19T05:39:02;10.18;;;3.35;;
80425;SDS011;69766;51.476;5.704;2023-10-19T05:41:33;14.77;;;3.83;;
80425;SDS011;69766;51.476;5.704;2023-10-19T05:44:03;13.48;;;4.05;;
80425;SDS011;69766;51.476;5.704;2023-10-19T05:46:28;10.75;;;3.70;;
80425;SDS011;69766;51.476;5.704;2023-10-19T05:48:54;9.70;;;3.90;;
80425;SDS011;69766;51.476;5.704;2023-10-19T05:51:21;11.50;;;3.92;;
80425;SDS011;69766;51.476;5.704;2023-10-19T05:53:47;9.77;;;4.00;;
80425;SDS011;69766;51.476;5.704;2023-10-19T05:56:13;14.98;;;3.42;;
80425;SDS011;69766;51.476;5.704;2023-10-19T05:58:41;11.50;;;4.45;;
80425;SDS011;69766;51.476;5.704;2023-10-19T06:01:07;9.27;;;3.45;;
80425;SDS011;69766;51.476;5.704;2023-10-19T06:03:32;10.48;;;3.88;;
80425;SDS011;69766;51.476;5.704;2023-10-19T06:05:58;8.90;;;3.47;;
80425;SDS011;69766;51.476;5.704;2023-10-19T06:08:24;10.75;;;2.92;;
80425;SDS011;69766;51.476;5.704;2023-10-19T06:10:50;10.38;;;3.63;;
80425;SDS011;69766;51.476;5.704;2023-10-19T06:13:17;8.50;;;3.20;;
80425;SDS011;69766;51.476;5.704;2023-10-19T06:15:42;13.07;;;3.47;;
80425;SDS011;69766;51.476;5.704;2023-10-19T06:18:09;12.80;;;2.90;;
80425;SDS011;69766;51.476;5.704;2023-10-19T06:20:35;11.05;;;3.80;;
80425;SDS011;69766;51.476;5.704;2023-10-19T06:23:01;11.85;;;3.70;;
80425;SDS011;69766;51.476;5.704;2023-10-19T06:25:31;11.60;;;4.03;;
80425;SDS011;69766;51.476;5.704;2023-10-19T06:27:57;15.60;;;3.95;;
80425;SDS011;69766;51.476;5.704;2023-10-19T06:30:24;10.15;;;3.38;;
80425;SDS011;69766;51.476;5.704;2023-10-19T06:32:52;10.40;;;4.03;;
80425;SDS011;69766;51.476;5.704;2023-10-19T06:35:25;12.07;;;3.63;;
80425;SDS011;69766;51.476;5.704;2023-10-19T06:37:52;15.20;;;4.40;;
80425;SDS011;69766;51.476;5.704;2023-10-19T06:40:20;11.07;;;4.25;;
80425;SDS011;69766;51.476;5.704;2023-10-19T06:42:47;15.75;;;5.13;;
80425;SDS011;69766;51.476;5.704;2023-10-19T06:45:14;11.70;;;4.35;;
80425;SDS011;69766;51.476;5.704;2023-10-19T06:47:44;12.48;;;4.18;;
80425;SDS011;69766;51.476;5.704;2023-10-19T06:50:12;8.27;;;3.70;;
80425;SDS011;69766;51.476;5.704;2023-10-19T06:52:40;15.50;;;4.28;;
80425;SDS011;69766;51.476;5.704;2023-10-19T06:55:08;11.93;;;3.95;;
80425;SDS011;69766;51.476;5.704;2023-10-19T07:00:12;7.97;;;3.60;;
80425;SDS011;69766;51.476;5.704;2023-10-19T07:02:43;10.30;;;3.55;;
80425;SDS011;69766;51.476;5.704;2023-10-19T07:05:11;12.32;;;4.10;;
80425;SDS011;69766;51.476;5.704;2023-10-19T07:07:42;18.50;;;4.55;;
80425;SDS011;69766;51.476;5.704;2023-10-19T07:10:08;11.43;;;3.40;;
80425;SDS011;69766;51.476;5.704;2023-10-19T07:12:37;9.48;;;3.30;;
80425;SDS011;69766;51.476;5.704;2023-10-19T07:15:06;13.48;;;3.83;;
80425;SDS011;69766;51.476;5.704;2023-10-19T07:17:36;9.10;;;3.65;;
80425;SDS011;69766;51.476;5.704;2023-10-19T07:20:05;10.90;;;3.40;;
80425;SDS011;69766;51.476;5.704;2023-10-19T07:22:34;10.65;;;3.65;;
80425;SDS011;69766;51.476;5.704;2023-10-19T07:25:20;13.50;;;3.97;;
80425;SDS011;69766;51.476;5.704;2023-10-19T07:27:49;10.65;;;4.13;;
80425;SDS011;69766;51.476;5.704;2023-10-19T07:30:16;14.00;;;4.22;;
80425;SDS011;69766;51.476;5.704;2023-10-19T07:32:47;15.23;;;4.43;;
80425;SDS011;69766;51.476;5.704;2023-10-19T07:35:16;10.20;;;3.97;;
80425;SDS011;69766;51.476;5.704;2023-10-19T07:37:43;14.05;;;4.65;;
80425;SDS011;69766;51.476;5.704;2023-10-19T07:40:09;16.98;;;4.65;;
80425;SDS011;69766;51.476;5.704;2023-10-19T07:42:39;14.67;;;4.27;;
80425;SDS011;69766;51.476;5.704;2023-10-19T07:45:05;15.65;;;5.07;;
80425;SDS011;69766;51.476;5.704;2023-10-19T07:47:36;11.82;;;3.90;;
80425;SDS011;69766;51.476;5.704;2023-10-19T07:50:05;13.55;;;4.32;;
80425;SDS011;69766;51.476;5.704;2023-10-19T07:52:44;8.98;;;3.60;;
80425;SDS011;69766;51.476;5.704;2023-10-19T07:55:13;10.00;;;3.28;;
80425;SDS011;69766;51.476;5.704;2023-10-19T07:57:39;8.90;;;3.00;;
80425;SDS011;69766;51.476;5.704;2023-10-19T08:00:07;15.18;;;3.15;;
80425;SDS011;69766;51.476;5.704;2023-10-19T08:02:35;13.52;;;2.70;;
80425;SDS011;69766;51.476;5.704;2023-10-19T08:05:01;9.63;;;2.83;;
80425;SDS011;69766;51.476;5.704;2023-10-19T08:07:28;16.60;;;3.33;;
80425;SDS011;69766;51.476;5.704;2023-10-19T08:09:54;9.10;;;2.63;;
80425;SDS011;69766;51.476;5.704;2023-10-19T08:12:20;7.30;;;2.78;;
80425;SDS011;69766;51.476;5.704;2023-10-19T08:14:47;8.02;;;2.70;;
80425;SDS011;69766;51.476;5.704;2023-10-19T08:17:13;10.02;;;3.10;;
80425;SDS011;69766;51.476;5.704;2023-10-19T08:19:39;11.73;;;3.63;;
80425;SDS011;69766;51.476;5.704;2023-10-19T08:22:06;9.57;;;3.03;;
80425;SDS011;69766;51.476;5.704;2023-10-19T08:24:32;12.65;;;3.80;;
80425;SDS011;69766;51.476;5.704;2023-10-19T08:27:00;9.85;;;3.25;;
80425;SDS011;69766;51.476;5.704;2023-10-19T08:29:26;8.05;;;2.72;;
80425;SDS011;69766;51.476;5.704;2023-10-19T08:31:52;10.43;;;3.15;;
80425;SDS011;69766;51.476;5.704;2023-10-19T08:34:18;10.23;;;2.53;;
80425;SDS011;69766;51.476;5.704;2023-10-19T08:36:45;9.48;;;3.28;;
80425;SDS011;69766;51.476;5.704;2023-10-19T08:39:11;10.05;;;2.92;;
80425;SDS011;69766;51.476;5.704;2023-10-19T08:41:39;12.32;;;3.13;;
80425;SDS011;69766;51.476;5.704;2023-10-19T08:44:06;10.02;;;3.33;;
80425;SDS011;69766;51.476;5.704;2023-10-19T08:46:40;8.60;;;3.23;;
80425;SDS011;69766;51.476;5.704;2023-10-19T08:49:15;8.80;;;3.30;;
80425;SDS011;69766;51.476;5.704;2023-10-19T08:51:45;11.63;;;3.83;;
80425;SDS011;69766;51.476;5.704;2023-10-19T08:54:12;10.25;;;4.00;;
80425;SDS011;69766;51.476;5.704;2023-10-19T08:56:40;12.50;;;4.07;;
80425;SDS011;69766;51.476;5.704;2023-10-19T08:59:13;11.27;;;3.92;;
80425;SDS011;69766;51.476;5.704;2023-10-19T09:01:42;9.95;;;4.40;;
80425;SDS011;69766;51.476;5.704;2023-10-19T09:04:11;13.63;;;4.25;;
80425;SDS011;69766;51.476;5.704;2023-10-19T09:06:38;15.70;;;4.25;;
80425;SDS011;69766;51.476;5.704;2023-10-19T09:09:12;10.43;;;3.80;;
80425;SDS011;69766;51.476;5.704;2023-10-19T09:11:50;8.10;;;3.92;;
80425;SDS011;69766;51.476;5.704;2023-10-19T09:14:31;10.30;;;4.35;;
80425;SDS011;69766;51.476;5.704;2023-10-19T09:17:08;12.00;;;5.53;;
80425;SDS011;69766;51.476;5.704;2023-10-19T09:19:39;12.25;;;4.30;;
80425;SDS011;69766;51.476;5.704;2023-10-19T09:22:07;12.98;;;4.22;;
80425;SDS011;69766;51.476;5.704;2023-10-19T09:24:36;8.15;;;3.28;;
80425;SDS011;69766;51.476;5.704;2023-10-19T09:27:05;14.15;;;4.25;;
80425;SDS011;69766;51.476;5.704;2023-10-19T09:29:31;11.65;;;4.13;;
80425;SDS011;69766;51.476;5.704;2023-10-19T09:31:59;12.15;;;4.35;;
80425;SDS011;69766;51.476;5.704;2023-10-19T09:34:29;16.05;;;4.43;;
80425;SDS011;69766;51.476;5.704;2023-10-19T09:37:02;12.05;;;4.43;;
80425;SDS011;69766;51.476;5.704;2023-10-19T09:39:32;10.90;;;3.70;;
80425;SDS011;69766;51.476;5.704;2023-10-19T09:42:01;10.95;;;3.63;;
80425;SDS011;69766;51.476;5.704;2023-10-19T09:44:30;12.05;;;4.07;;
80425;SDS011;69766;51.476;5.704;2023-10-19T09:47:01;9.55;;;3.53;;
80425;SDS011;69766;51.476;5.704;2023-10-19T09:49:34;13.52;;;4.03;;
80425;SDS011;69766;51.476;5.704;2023-10-19T09:52:00;11.45;;;3.25;;
80425;SDS011;69766;51.476;5.704;2023-10-19T09:54:27;7.07;;;3.10;;
80425;SDS011;69766;51.476;5.704;2023-10-19T09:57:09;11.65;;;3.83;;
80425;SDS011;69766;51.476;5.704;2023-10-19T09:59:42;12.13;;;3.97;;
80425;SDS011;69766;51.476;5.704;2023-10-19T10:02:15;14.40;;;4.10;;
80425;SDS011;69766;51.476;5.704;2023-10-19T10:04:43;7.07;;;3.22;;
80425;SDS011;69766;51.476;5.704;2023-10-19T10:07:10;9.85;;;3.22;;
80425;SDS011;69766;51.476;5.704;2023-10-19T10:09:37;10.80;;;3.50;;
80425;SDS011;69766;51.476;5.704;2023-10-19T10:12:21;9.98;;;3.33;;
80425;SDS011;69766;51.476;5.704;2023-10-19T10:14:55;16.30;;;4.00;;
80425;SDS011;69766;51.476;5.704;2023-10-19T10:17:27;15.52;;;3.67;;
80425;SDS011;69766;51.476;5.704;2023-10-19T10:19:54;9.88;;;2.70;;
80425;SDS011;69766;51.476;5.704;2023-10-19T10:22:22;7.40;;;2.80;;
80425;SDS011;69766;51.476;5.704;2023-10-19T10:24:48;8.23;;;2.38;;
80425;SDS011;69766;51.476;5.704;2023-10-19T10:27:21;10.57;;;3.15;;
80425;SDS011;69766;51.476;5.704;2023-10-19T10:29:53;9.93;;;2.67;;
80425;SDS011;69766;51.476;5.704;2023-10-19T10:32:46;12.85;;;2.65;;
80425;SDS011;69766;51.476;5.704;2023-10-19T10:38:02;13.80;;;2.55;;
80425;SDS011;69766;51.476;5.704;2023-10-19T10:40:43;15.18;;;2.55;;
80425;SDS011;69766;51.476;5.704;2023-10-19T10:43:10;10.70;;;2.20;;
80425;SDS011;69766;51.476;5.704;2023-10-19T10:45:36;10.82;;;1.90;;
80425;SDS011;69766;51.476;5.704;2023-10-19T10:48:02;7.95;;;1.70;;
80425;SDS011;69766;51.476;5.704;2023-10-19T10:50:29;9.82;;;2.10;;
80425;SDS011;69766;51.476;5.704;2023-10-19T10:52:54;8.27;;;2.10;;
80425;SDS011;69766;51.476;5.704;2023-10-19T10:55:24;10.23;;;2.10;;
80425;SDS011;69766;51.476;5.704;2023-10-19T10:57:50;8.38;;;1.92;;
80425;SDS011;69766;51.476;5.704;2023-10-19T11:00:17;10.10;;;2.00;;
80425;SDS011;69766;51.476;5.704;2023-10-19T11:02:45;8.10;;;2.15;;
80425;SDS011;69766;51.476;5.704;2023-10-19T11:05:12;10.48;;;2.53;;
80425;SDS011;69766;51.476;5.704;2023-10-19T11:10:35;9.38;;;2.20;;
80425;SDS011;69766;51.476;5.704;2023-10-19T11:13:04;12.88;;;2.20;;
80425;SDS011;69766;51.476;5.704;2023-10-19T11:15:34;12.88;;;2.35;;
80425;SDS011;69766;51.476;5.704;2023-10-19T11:18:04;12.73;;;2.30;;
80425;SDS011;69766;51.476;5.704;2023-10-19T11:20:32;12.50;;;2.95;;
80425;SDS011;69766;51.476;5.704;2023-10-19T11:22:58;11.15;;;2.33;;
80425;SDS011;69766;51.476;5.704;2023-10-19T11:25:27;10.63;;;2.25;;
80425;SDS011;69766;51.476;5.704;2023-10-19T11:27:58;11.93;;;2.33;;
80425;SDS011;69766;51.476;5.704;2023-10-19T11:32:54;12.57;;;2.42;;
80425;SDS011;69766;51.476;5.704;2023-10-19T11:35:26;17.90;;;2.67;;
80425;SDS011;69766;51.476;5.704;2023-10-19T11:37:55;12.75;;;2.45;;
80425;SDS011;69766;51.476;5.704;2023-10-19T11:40:25;9.40;;;3.05;;
80425;SDS011;69766;51.476;5.704;2023-10-19T11:42:51;11.82;;;2.00;;
80425;SDS011;69766;51.476;5.704;2023-10-19T11:45:21;13.80;;;2.80;;
80425;SDS011;69766;51.476;5.704;2023-10-19T11:47:48;16.33;;;3.53;;
80425;SDS011;69766;51.476;5.704;2023-10-19T11:50:15;14.77;;;2.20;;
80425;SDS011;69766;51.476;5.704;2023-10-19T11:52:43;12.73;;;3.00;;
80425;SDS011;69766;51.476;5.704;2023-10-19T11:55:11;9.40;;;2.30;;
80425;SDS011;69766;51.476;5.704;2023-10-19T11:57:38;11.02;;;2.38;;
80425;SDS011;69766;51.476;5.704;2023-10-19T12:00:09;11.50;;;2.60;;
80425;SDS011;69766;51.476;5.704;2023-10-19T12:02:46;11.60;;;2.33;;
80425;SDS011;69766;51.476;5.704;2023-10-19T12:05:12;11.07;;;2.40;;
80425;SDS011;69766;51.476;5.704;2023-10-19T12:07:38;9.82;;;2.45;;
80425;SDS011;69766;51.476;5.704;2023-10-19T12:10:08;5.88;;;1.83;;
80425;SDS011;69766;51.476;5.704;2023-10-19T12:12:36;9.55;;;2.55;;
80425;SDS011;69766;51.476;5.704;2023-10-19T12:15:05;11.30;;;3.00;;
80425;SDS011;69766;51.476;5.704;2023-10-19T12:17:31;11.38;;;2.60;;
80425;SDS011;69766;51.476;5.704;2023-10-19T12:19:57;17.90;;;3.20;;
80425;SDS011;69766;51.476;5.704;2023-10-19T12:22:23;12.05;;;3.05;;
80425;SDS011;69766;51.476;5.704;2023-10-19T12:24:53;8.40;;;2.40;;
80425;SDS011;69766;51.476;5.704;2023-10-19T12:27:19;13.32;;;2.55;;
80425;SDS011;69766;51.476;5.704;2023-10-19T12:29:45;12.93;;;2.53;;
80425;SDS011;69766;51.476;5.704;2023-10-19T12:32:11;9.55;;;2.30;;
80425;SDS011;69766;51.476;5.704;2023-10-19T12:34:39;16.95;;;3.17;;
80425;SDS011;69766;51.476;5.704;2023-10-19T12:37:06;18.05;;;2.92;;
80425;SDS011;69766;51.476;5.704;2023-10-19T12:39:34;12.20;;;2.63;;
80425;SDS011;69766;51.476;5.704;2023-10-19T12:42:10;11.50;;;2.63;;
80425;SDS011;69766;51.476;5.704;2023-10-19T12:44:36;11.82;;;2.03;;
80425;SDS011;69766;51.476;5.704;2023-10-19T12:47:06;13.38;;;2.50;;
80425;SDS011;69766;51.476;5.704;2023-10-19T12:49:41;8.10;;;2.20;;
80425;SDS011;69766;51.476;5.704;2023-10-19T12:52:10;53.13;;;14.38;;
80425;SDS011;69766;51.476;5.704;2023-10-19T12:54:36;15.57;;;3.25;;
80425;SDS011;69766;51.476;5.704;2023-10-19T12:57:03;8.00;;;2.50;;
80425;SDS011;69766;51.476;5.704;2023-10-19T12:59:31;10.60;;;2.08;;
80425;SDS011;69766;51.476;5.704;2023-10-19T13:01:58;11.95;;;2.05;;
80425;SDS011;69766;51.476;5.704;2023-10-19T13:04:27;11.20;;;2.20;;
80425;SDS011;69766;51.476;5.704;2023-10-19T13:06:55;14.35;;;2.85;;
80425;SDS011;69766;51.476;5.704;2023-10-19T13:09:23;12.00;;;2.50;;
80425;SDS011;69766;51.476;5.704;2023-10-19T13:12:01;14.43;;;3.15;;
80425;SDS011;69766;51.476;5.704;2023-10-19T13:14:27;19.02;;;3.50;;
80425;SDS011;69766;51.476;5.704;2023-10-19T13:16:53;15.23;;;2.92;;
80425;SDS011;69766;51.476;5.704;2023-10-19T13:19:19;13.20;;;2.53;;
80425;SDS011;69766;51.476;5.704;2023-10-19T13:21:50;12.07;;;3.00;;
80425;SDS011;69766;51.476;5.704;2023-10-19T13:24:17;18.15;;;3.10;;
80425;SDS011;69766;51.476;5.704;2023-10-19T13:26:45;13.27;;;3.20;;
80425;SDS011;69766;51.476;5.704;2023-10-19T13:29:12;11.85;;;2.70;;
80425;SDS011;69766;51.476;5.704;2023-10-19T13:31:40;14.73;;;3.65;;
80425;SDS011;69766;51.476;5.704;2023-10-19T13:34:05;16.00;;;3.17;;
80425;SDS011;69766;51.476;5.704;2023-10-19T13:36:35;16.73;;;3.57;;
80425;SDS011;69766;51.476;5.704;2023-10-19T13:39:01;14.90;;;3.90;;
80425;SDS011;69766;51.476;5.704;2023-10-19T13:41:28;15.07;;;4.32;;
80425;SDS011;69766;51.476;5.704;2023-10-19T13:43:54;23.88;;;4.45;;
80425;SDS011;69766;51.476;5.704;2023-10-19T13:46:20;17.73;;;4.07;;
80425;SDS011;69766;51.476;5.704;2023-10-19T13:48:48;22.90;;;4.80;;
80425;SDS011;69766;51.476;5.704;2023-10-19T13:51:17;23.63;;;5.30;;
80425;SDS011;69766;51.476;5.704;2023-10-19T13:53:45;17.42;;;4.38;;
80425;SDS011;69766;51.476;5.704;2023-10-19T13:56:13;16.42;;;4.25;;
80425;SDS011;69766;51.476;5.704;2023-10-19T13:58:40;15.38;;;4.50;;
80425;SDS011;69766;51.476;5.704;2023-10-19T14:01:09;13.05;;;4.38;;
80425;SDS011;69766;51.476;5.704;2023-10-19T14:03:35;10.93;;;3.75;;
80425;SDS011;69766;51.476;5.704;2023-10-19T14:06:02;12.48;;;4.18;;
80425;SDS011;69766;51.476;5.704;2023-10-19T14:08:28;12.20;;;3.95;;
80425;SDS011;69766;51.476;5.704;2023-10-19T14:11:00;14.20;;;4.25;;
80425;SDS011;69766;51.476;5.704;2023-10-19T14:13:27;17.00;;;4.35;;
80425;SDS011;69766;51.476;5.704;2023-10-19T14:15:54;15.38;;;5.20;;
80425;SDS011;69766;51.476;5.704;2023-10-19T14:18:20;13.63;;;4.43;;
80425;SDS011;69766;51.476;5.704;2023-10-19T14:20:46;14.35;;;5.20;;
80425;SDS011;69766;51.476;5.704;2023-10-19T14:23:12;19.77;;;6.15;;
80425;SDS011;69766;51.476;5.704;2023-10-19T14:25:38;22.85;;;6.82;;
80425;SDS011;69766;51.476;5.704;2023-10-19T14:28:04;21.85;;;5.75;;
80425;SDS011;69766;51.476;5.704;2023-10-19T14:30:32;24.98;;;5.82;;
80425;SDS011;69766;51.476;5.704;2023-10-19T14:32:58;21.52;;;6.70;;
80425;SDS011;69766;51.476;5.704;2023-10-19T14:35:24;19.92;;;4.95;;
80425;SDS011;69766;51.476;5.704;2023-10-19T14:37:51;12.27;;;4.45;;
80425;SDS011;69766;51.476;5.704;2023-10-19T14:40:23;10.30;;;4.85;;
80425;SDS011;69766;51.476;5.704;2023-10-19T14:42:51;20.73;;;5.85;;
80425;SDS011;69766;51.476;5.704;2023-10-19T14:45:19;14.95;;;5.60;;
80425;SDS011;69766;51.476;5.704;2023-10-19T14:47:48;14.45;;;4.72;;
80425;SDS011;69766;51.476;5.704;2023-10-19T14:50:19;15.02;;;4.60;;
80425;SDS011;69766;51.476;5.704;2023-10-19T14:52:46;12.23;;;3.50;;
80425;SDS011;69766;51.476;5.704;2023-10-19T14:55:14;12.40;;;3.58;;
80425;SDS011;69766;51.476;5.704;2023-10-19T14:57:44;12.35;;;2.55;;
80425;SDS011;69766;51.476;5.704;2023-10-19T15:00:13;11.57;;;2.60;;
80425;SDS011;69766;51.476;5.704;2023-10-19T15:02:47;11.45;;;2.28;;